createdAt,value
2019-01-04T00:01:37.973Z,-1.42
2019-01-04T00:04:10.944Z,-1.39
2019-01-04T00:06:41.732Z,-1.27
2019-01-04T00:09:12.534Z,-1.24
2019-01-04T00:11:43.596Z,-1.29
2019-01-04T00:14:14.506Z,-1.19
2019-01-04T00:16:45.336Z,-1.39
2019-01-04T00:19:16.165Z,-1.29
2019-01-04T00:21:46.973Z,-1.22
2019-01-04T00:24:17.797Z,-1.36
2019-01-04T00:26:48.584Z,-1.29
2019-01-04T00:29:20.360Z,-1.28
2019-01-04T00:31:51.152Z,-1.21
2019-01-04T00:34:21.954Z,-1.24
2019-01-04T00:36:52.744Z,-1.19
2019-01-04T00:39:23.702Z,-1.31
2019-01-04T00:41:54.545Z,-1.28
2019-01-04T00:44:25.354Z,-1.08
2019-01-04T00:46:56.661Z,-1.14
2019-01-04T00:49:27.473Z,-1.28
2019-01-04T00:51:58.353Z,-1.09
2019-01-04T00:54:29.224Z,-1.11
2019-01-04T00:57:50.278Z,-1.09
2019-01-04T01:00:57.111Z,-0.99
2019-01-04T01:03:55.577Z,-0.92
2019-01-04T01:06:57.258Z,-1.03
2019-01-04T01:10:04.309Z,-1.01
2019-01-04T01:13:21.132Z,-1.16
2019-01-04T01:16:33.294Z,-1.05
2019-01-04T01:19:55.282Z,-1.16
2019-01-04T01:22:46.585Z,-1.13
2019-01-04T01:26:02.294Z,-1.13
2019-01-04T01:29:09.521Z,-1.22
2019-01-04T01:32:17.675Z,-1.12
2019-01-04T01:35:28.664Z,-1.22
2019-01-04T01:38:34.931Z,-1.28
2019-01-04T01:42:14.366Z,-1.24
2019-01-04T01:45:22.002Z,-1.17
2019-01-04T01:48:13.822Z,-1.08
2019-01-04T01:51:36.560Z,-1.14
2019-01-04T01:54:07.356Z,-1.11
2019-01-04T01:56:38.168Z,-1.02
2019-01-04T01:59:09.048Z,-1.04
2019-01-04T02:01:39.904Z,-1.08
2019-01-04T02:04:10.845Z,-1.10
2019-01-04T02:06:41.706Z,-0.90
2019-01-04T02:09:12.506Z,-1.23
2019-01-04T02:11:43.422Z,-1.15
2019-01-04T02:14:14.309Z,-1.09
2019-01-04T02:16:45.129Z,-1.06
2019-01-04T02:19:16.065Z,-1.12
2019-01-04T02:21:46.926Z,-1.23
2019-01-04T02:24:17.759Z,-1.20
2019-01-04T02:26:48.605Z,-1.24
2019-01-04T02:29:19.879Z,-1.42
2019-01-04T02:31:50.767Z,-1.20
2019-01-04T02:34:21.607Z,-1.15
2019-01-04T02:36:52.437Z,-1.04
2019-01-04T02:39:23.405Z,-1.26
2019-01-04T02:41:54.286Z,-1.39
2019-01-04T02:44:25.088Z,-1.30
2019-01-04T02:46:55.933Z,-1.12
2019-01-04T02:49:26.841Z,-1.06
2019-01-04T02:51:57.729Z,-0.88
2019-01-04T02:54:28.974Z,-0.95
2019-01-04T02:56:59.771Z,-0.98
2019-01-04T02:59:30.596Z,-0.98
2019-01-04T03:02:01.391Z,-1.26
2019-01-04T03:04:32.442Z,-1.10
2019-01-04T03:07:03.220Z,-0.98
2019-01-04T03:09:34.152Z,-1.25
2019-01-04T03:12:05.018Z,-1.33
2019-01-04T03:14:35.879Z,-1.26
2019-01-04T03:17:06.699Z,-1.23
2019-01-04T03:19:37.797Z,-1.25
2019-01-04T03:22:08.590Z,-1.43
2019-01-04T03:24:39.455Z,-1.40
2019-01-04T03:27:10.367Z,-1.47
2019-01-04T03:29:41.288Z,-1.33
2019-01-04T03:32:12.129Z,-1.19
2019-01-04T03:34:42.926Z,-1.24
2019-01-04T03:37:13.700Z,-1.26
2019-01-04T03:39:44.573Z,-1.10
2019-01-04T03:42:15.353Z,-1.20
2019-01-04T03:44:46.159Z,-1.29
2019-01-04T03:47:16.959Z,-1.11
2019-01-04T03:49:47.807Z,-1.27
2019-01-04T03:52:18.619Z,-1.39
2019-01-04T03:54:49.494Z,-1.47
2019-01-04T03:57:20.411Z,-1.32
2019-01-04T03:59:51.270Z,-1.23
2019-01-04T04:02:22.101Z,-1.27
2019-01-04T04:04:52.911Z,-1.23
2019-01-04T04:07:23.777Z,-1.28
2019-01-04T04:09:54.659Z,-1.12
2019-01-04T04:12:25.632Z,-1.01
2019-01-04T04:14:56.605Z,-0.97
2019-01-04T04:17:27.481Z,-1.14
2019-01-04T04:19:58.586Z,-1.14
2019-01-04T04:22:29.501Z,-1.22
2019-01-04T04:25:00.309Z,-1.31
2019-01-04T04:27:31.102Z,-1.27
2019-01-04T04:30:02.032Z,-1.06
2019-01-04T04:32:33.914Z,-1.04
2019-01-04T04:35:04.940Z,-1.24
2019-01-04T04:37:35.742Z,-1.18
2019-01-04T04:40:06.603Z,-1.24
2019-01-04T04:42:37.716Z,-1.27
2019-01-04T04:45:08.519Z,-1.28
2019-01-04T04:47:39.318Z,-1.28
2019-01-04T04:50:10.132Z,-1.26
2019-01-04T04:52:40.932Z,-1.34
2019-01-04T04:55:11.806Z,-1.26
2019-01-04T04:57:42.605Z,-1.21
2019-01-04T05:00:13.403Z,-1.36
2019-01-04T05:02:44.281Z,-1.23
2019-01-04T05:05:15.171Z,-1.18
2019-01-04T05:07:45.968Z,-1.28
2019-01-04T05:10:16.776Z,-1.14
2019-01-04T05:12:47.615Z,-1.43
2019-01-04T05:15:18.423Z,-1.19
2019-01-04T05:17:49.306Z,-1.30
2019-01-04T05:20:20.131Z,-1.45
2019-01-04T05:22:50.911Z,-1.33
2019-01-04T05:25:21.725Z,-1.22
2019-01-04T05:27:53.673Z,-0.99
2019-01-04T05:30:24.515Z,-1.06
2019-01-04T05:32:55.331Z,-1.14
2019-01-04T05:35:26.136Z,-1.12
2019-01-04T05:37:56.936Z,-1.00
2019-01-04T05:40:27.932Z,-1.19
2019-01-04T05:42:58.709Z,-1.00
2019-01-04T05:45:29.526Z,-1.11
2019-01-04T05:48:00.370Z,-1.04
2019-01-04T05:50:31.173Z,-1.18
2019-01-04T05:53:01.997Z,-1.19
2019-01-04T05:55:32.794Z,-1.26
2019-01-04T05:58:03.590Z,-1.42
2019-01-04T06:00:34.476Z,-1.14
2019-01-04T06:03:05.291Z,-1.19
2019-01-04T06:05:36.140Z,-1.15
2019-01-04T06:08:06.950Z,-1.21
2019-01-04T06:10:38.104Z,-1.34
2019-01-04T06:13:08.925Z,-1.24
2019-01-04T06:15:39.836Z,-1.10
2019-01-04T06:18:10.693Z,-1.27
2019-01-04T06:20:41.585Z,-1.18
2019-01-04T06:23:12.386Z,-1.22
2019-01-04T06:25:43.235Z,-1.08
2019-01-04T06:28:14.044Z,-1.18
2019-01-04T06:30:44.920Z,-1.00
2019-01-04T06:33:15.897Z,-1.07
2019-01-04T06:35:46.881Z,-1.32
2019-01-04T06:38:17.704Z,-1.27
2019-01-04T06:40:48.507Z,-1.19
2019-01-04T06:43:19.396Z,-1.24
2019-01-04T06:45:50.383Z,-1.34
2019-01-04T06:48:21.292Z,-1.16
2019-01-04T06:50:52.156Z,-1.16
2019-01-04T06:53:23.038Z,-1.12
2019-01-04T06:55:59.391Z,-0.98
2019-01-04T06:58:30.184Z,-0.84
2019-01-04T07:01:00.995Z,-1.09
2019-01-04T07:03:32.008Z,-1.07
2019-01-04T07:06:02.838Z,-1.15
2019-01-04T07:08:33.632Z,-1.06
2019-01-04T07:11:04.460Z,-0.98
2019-01-04T07:13:35.374Z,-1.04
2019-01-04T07:16:06.204Z,-0.92
2019-01-04T07:18:36.985Z,-1.10
2019-01-04T07:21:07.831Z,-1.08
2019-01-04T07:23:38.631Z,-1.22
2019-01-04T07:26:09.493Z,-1.16
2019-01-04T07:28:41.141Z,-0.86
2019-01-04T07:31:15.095Z,-1.28
2019-01-04T07:33:46.856Z,-1.29
2019-01-04T07:36:17.843Z,-1.20
2019-01-04T07:38:48.729Z,-1.16
2019-01-04T07:41:19.540Z,-1.08
2019-01-04T07:43:50.412Z,-1.12
2019-01-04T07:46:21.284Z,-1.09
2019-01-04T07:48:52.183Z,-1.17
2019-01-04T07:51:23.050Z,-1.07
2019-01-04T07:53:53.952Z,-0.95
2019-01-04T07:56:24.882Z,-1.03
2019-01-04T07:58:55.659Z,-1.09
2019-01-04T08:01:26.468Z,-0.91
2019-01-04T08:03:57.277Z,-0.83
2019-01-04T08:06:28.181Z,-0.96
2019-01-04T08:08:58.989Z,-0.94
2019-01-04T08:11:29.796Z,-1.01
2019-01-04T08:14:00.652Z,-0.95
2019-01-04T08:16:31.454Z,-0.78
2019-01-04T08:19:02.343Z,-0.76
2019-01-04T08:21:33.267Z,-0.68
2019-01-04T08:24:04.044Z,-0.65
2019-01-04T08:26:34.974Z,-0.49
2019-01-04T08:29:05.977Z,-0.36
2019-01-04T08:31:36.857Z,-0.41
2019-01-04T08:34:07.843Z,-0.71
2019-01-04T08:36:38.727Z,-0.79
2019-01-04T08:39:09.562Z,-0.73
2019-01-04T08:41:40.395Z,-0.80
2019-01-04T08:44:11.208Z,-0.83
2019-01-04T08:46:42.024Z,-0.86
2019-01-04T08:49:12.908Z,-0.81
2019-01-04T08:51:43.749Z,-0.71
2019-01-04T08:54:14.548Z,-0.85
2019-01-04T08:56:45.442Z,-0.70
2019-01-04T08:59:16.279Z,-0.86
2019-01-04T09:01:47.079Z,-0.72
2019-01-04T09:04:17.878Z,-0.74
2019-01-04T09:06:48.854Z,-0.79
2019-01-04T09:09:20.020Z,-0.74
2019-01-04T09:11:50.836Z,-0.69
2019-01-04T09:14:21.641Z,-0.63
2019-01-04T09:16:52.454Z,-0.75
2019-01-04T09:19:23.258Z,-0.73
2019-01-04T09:21:54.150Z,-0.77
2019-01-04T09:24:24.950Z,-0.67
2019-01-04T09:26:55.764Z,-0.69
2019-01-04T09:29:26.574Z,-0.76
2019-01-04T09:31:57.567Z,-0.65
2019-01-04T09:34:28.366Z,-0.82
2019-01-04T09:36:59.211Z,-0.65
2019-01-04T09:39:30.350Z,-0.63
2019-01-04T09:42:08.693Z,-0.75
2019-01-04T09:44:39.487Z,-1.08
2019-01-04T09:47:10.312Z,-0.87
2019-01-04T09:49:41.123Z,-0.80
2019-01-04T09:52:11.930Z,-0.97
2019-01-04T09:54:42.731Z,-0.78
2019-01-04T09:57:13.807Z,-0.89
2019-01-04T09:59:44.603Z,-0.84
2019-01-04T10:02:15.437Z,-0.91
2019-01-04T10:04:46.273Z,-0.76
2019-01-04T10:07:17.097Z,-0.86
2019-01-04T10:09:48.061Z,-1.03
2019-01-04T10:12:18.898Z,-1.00
2019-01-04T10:14:49.764Z,-1.02
2019-01-04T10:17:20.572Z,-0.90
2019-01-04T10:19:51.647Z,-0.88
2019-01-04T10:22:22.663Z,-0.62
2019-01-04T10:24:53.456Z,-1.02
2019-01-04T10:27:24.283Z,-1.24
2019-01-04T10:29:55.099Z,-1.03
2019-01-04T10:32:25.961Z,-1.33
2019-01-04T10:34:56.932Z,-0.90
2019-01-04T10:37:27.814Z,-0.91
2019-01-04T10:39:58.618Z,-0.97
2019-01-04T10:42:29.454Z,-0.75
2019-01-04T10:45:00.278Z,-0.54
2019-01-04T10:47:31.092Z,-0.61
2019-01-04T10:50:01.895Z,-0.78
2019-01-04T10:52:32.719Z,-0.70
2019-01-04T10:55:03.603Z,-0.77
2019-01-04T10:57:34.479Z,-0.83
2019-01-04T11:00:06.091Z,-0.97
2019-01-04T11:02:38.070Z,-0.98
2019-01-04T11:05:08.890Z,-0.80
2019-01-04T11:07:39.708Z,-0.39
2019-01-04T11:10:10.856Z,-0.46
2019-01-04T11:12:41.681Z,-0.13
2019-01-04T11:15:12.463Z,-0.42
2019-01-04T11:17:43.270Z,-0.82
2019-01-04T11:20:37.823Z,-0.70
2019-01-04T11:23:37.885Z,-0.50
2019-01-04T11:26:19.273Z,-0.57
2019-01-04T11:29:34.108Z,-0.56
2019-01-04T11:32:45.840Z,-0.79
2019-01-04T11:35:59.682Z,-0.54
2019-01-04T11:39:17.308Z,-0.70
2019-01-04T11:42:27.959Z,-0.76
2019-01-04T11:45:32.506Z,-0.82
2019-01-04T11:48:15.741Z,-0.76
2019-01-04T11:51:18.417Z,-0.80
2019-01-04T11:53:49.234Z,-0.46
2019-01-04T11:56:20.034Z,-0.77
2019-01-04T11:58:50.939Z,-0.49
2019-01-04T12:01:21.803Z,-0.42
2019-01-04T12:04:00.573Z,-0.63
2019-01-04T12:06:31.377Z,-0.64
2019-01-04T12:09:02.206Z,-0.21
2019-01-04T12:11:34.271Z,-0.31
2019-01-04T12:14:05.099Z,-0.31
2019-01-04T12:16:35.899Z,-0.42
2019-01-04T12:19:06.701Z,-0.18
2019-01-04T12:21:37.509Z,-0.21
2019-01-04T12:24:08.333Z,0.19
2019-01-04T12:26:39.242Z,0.28
2019-01-04T12:29:10.037Z,-0.41
2019-01-04T12:31:40.844Z,-0.21
2019-01-04T12:34:16.583Z,-0.32
2019-01-04T12:36:44.257Z,-0.24
2019-01-04T12:39:15.071Z,-0.18
2019-01-04T12:41:45.882Z,-0.38
2019-01-04T12:44:16.691Z,-0.12
2019-01-04T12:46:47.502Z,-0.02
2019-01-04T12:49:18.294Z,0.11
2019-01-04T12:51:49.088Z,0.18
2019-01-04T12:54:19.898Z,-0.33
2019-01-04T12:56:51.059Z,-0.21
2019-01-04T12:59:21.925Z,0.08
2019-01-04T13:01:52.911Z,0.37
2019-01-04T13:04:23.689Z,0.26
2019-01-04T13:06:54.517Z,0.21
2019-01-04T13:09:25.289Z,0.35
2019-01-04T13:11:56.102Z,0.06
2019-01-04T13:14:27.078Z,0.06
2019-01-04T13:16:57.891Z,-0.10
2019-01-04T13:19:28.885Z,-0.16
2019-01-04T13:21:59.709Z,-0.04
2019-01-04T13:24:30.713Z,-0.38
2019-01-04T13:27:01.610Z,-0.45
2019-01-04T13:29:32.386Z,-0.30
2019-01-04T13:32:03.190Z,-0.36
2019-01-04T13:34:33.983Z,-0.14
2019-01-04T13:37:04.881Z,-0.11
2019-01-04T13:39:35.691Z,-0.46
2019-01-04T13:42:06.534Z,-0.19
2019-01-04T13:44:37.307Z,-0.43
2019-01-04T13:47:08.203Z,-0.20
2019-01-04T13:49:39.034Z,0.00
2019-01-04T13:52:09.898Z,-0.17
2019-01-04T13:54:40.752Z,0.06
2019-01-04T13:57:11.582Z,0.16
2019-01-04T13:59:42.400Z,0.17
2019-01-04T14:02:13.221Z,-0.34
2019-01-04T14:04:44.111Z,-0.60
2019-01-04T14:07:14.931Z,-0.66
2019-01-04T14:09:45.734Z,-0.47
2019-01-04T14:12:16.549Z,-0.35
2019-01-04T14:14:47.348Z,-0.52
2019-01-04T14:17:19.165Z,-0.61
2019-01-04T14:19:49.964Z,-0.58
2019-01-04T14:22:20.888Z,-0.78
2019-01-04T14:24:52.757Z,-0.77
2019-01-04T14:27:23.564Z,-0.84
2019-01-04T14:29:54.378Z,-0.59
2019-01-04T14:32:25.221Z,-0.49
2019-01-04T14:34:56.072Z,-0.47
2019-01-04T14:37:26.935Z,-0.58
2019-01-04T14:39:57.715Z,-0.48
2019-01-04T14:42:28.525Z,-0.56
2019-01-04T14:44:59.308Z,-0.88
2019-01-04T14:47:30.136Z,-0.79
2019-01-04T14:50:00.947Z,-0.72
2019-01-04T14:52:31.753Z,-0.85
2019-01-04T14:55:02.559Z,-0.73
2019-01-04T14:57:33.362Z,-0.78
2019-01-04T15:00:04.739Z,-0.77
2019-01-04T15:02:35.546Z,-0.96
2019-01-04T15:05:07.099Z,-0.81
2019-01-04T15:07:37.859Z,-1.06
2019-01-04T15:10:09.619Z,-1.00
2019-01-04T15:12:41.397Z,-0.98
2019-01-04T15:15:12.198Z,-1.03
2019-01-04T15:17:43.031Z,-0.92
2019-01-04T15:20:13.807Z,-0.98
2019-01-04T15:22:44.608Z,-0.86
2019-01-04T15:25:15.481Z,-0.91
2019-01-04T15:27:46.287Z,-0.91
2019-01-04T15:30:17.104Z,-0.87
2019-01-04T15:32:47.907Z,-0.94
2019-01-04T15:35:18.711Z,-0.92
2019-01-04T15:37:49.529Z,-0.88
2019-01-04T15:40:20.347Z,-0.85
2019-01-04T15:42:51.150Z,-0.74
2019-01-04T15:45:21.957Z,-0.88
2019-01-04T15:47:52.800Z,-1.00
2019-01-04T15:50:23.591Z,-0.93
2019-01-04T15:52:54.394Z,-0.92
2019-01-04T15:55:25.194Z,-0.86
2019-01-04T15:57:56.019Z,-0.79
2019-01-04T16:00:26.901Z,-0.85
2019-01-04T16:02:57.711Z,-0.87
2019-01-04T16:05:28.556Z,-0.96
2019-01-04T16:07:59.388Z,-0.90
2019-01-04T16:10:30.203Z,-0.85
2019-01-04T16:13:01.118Z,-0.84
2019-01-04T16:15:31.909Z,-0.91
2019-01-04T16:18:02.758Z,-0.93
2019-01-04T16:20:33.553Z,-1.00
2019-01-04T16:23:04.549Z,-0.92
2019-01-04T16:25:35.391Z,-0.89
2019-01-04T16:28:06.235Z,-0.88
2019-01-04T16:30:37.017Z,-0.84
2019-01-04T16:33:07.818Z,-0.83
2019-01-04T16:35:38.608Z,-0.95
2019-01-04T16:38:09.423Z,-1.04
2019-01-04T16:40:40.384Z,-1.03
2019-01-04T16:43:11.330Z,-0.85
2019-01-04T16:45:43.763Z,-0.94
2019-01-04T16:48:14.669Z,-0.95
2019-01-04T16:50:45.481Z,-0.91
2019-01-04T16:53:16.357Z,-1.02
2019-01-04T16:55:47.174Z,-0.96
2019-01-04T16:58:18.012Z,-1.07
2019-01-04T17:00:48.821Z,-0.92
2019-01-04T17:03:19.629Z,-0.94
2019-01-04T17:05:50.430Z,-0.88
2019-01-04T17:08:21.244Z,-0.92
2019-01-04T17:10:52.055Z,-0.94
2019-01-04T17:13:22.857Z,-0.95
2019-01-04T17:15:53.665Z,-0.84
2019-01-04T17:18:24.494Z,-0.88
2019-01-04T17:20:55.302Z,-0.91
2019-01-04T17:23:26.108Z,-0.97
2019-01-04T17:25:56.918Z,-0.90
2019-01-04T17:28:27.747Z,-0.95
2019-01-04T17:30:58.536Z,-0.70
2019-01-04T17:33:29.389Z,-0.73
2019-01-04T17:36:00.176Z,-0.79
2019-01-04T17:38:30.984Z,-0.70
2019-01-04T17:41:02.244Z,-0.71
2019-01-04T17:43:33.074Z,-0.70
2019-01-04T17:46:03.893Z,-0.75
2019-01-04T17:48:34.693Z,-0.77
2019-01-04T17:51:05.558Z,-0.77
2019-01-04T17:53:36.372Z,-0.77
2019-01-04T17:56:07.169Z,-0.80
2019-01-04T17:58:37.997Z,-0.67
2019-01-04T18:01:08.841Z,-0.61
2019-01-04T18:03:39.641Z,-0.73
2019-01-04T18:06:10.425Z,-0.74
2019-01-04T18:08:41.268Z,-0.74
2019-01-04T18:11:12.039Z,-0.66
2019-01-04T18:13:42.890Z,-0.69
2019-01-04T18:16:13.673Z,-0.81
2019-01-04T18:18:44.461Z,-0.84
2019-01-04T18:21:15.262Z,-0.84
2019-01-04T18:23:46.069Z,-0.78
2019-01-04T18:26:16.907Z,-0.83
2019-01-04T18:28:47.711Z,-0.82
2019-01-04T18:31:18.517Z,-0.75
2019-01-04T18:33:49.328Z,-0.89
2019-01-04T18:36:20.110Z,-0.74
2019-01-04T18:38:50.890Z,-0.73
2019-01-04T18:41:22.618Z,-0.72
2019-01-04T18:43:53.540Z,-0.65
2019-01-04T18:46:24.344Z,-0.72
2019-01-04T18:48:55.384Z,-0.65
2019-01-04T18:51:26.092Z,-0.73
2019-01-04T18:53:56.886Z,-0.67
2019-01-04T18:56:27.683Z,-0.74
2019-01-04T18:58:58.695Z,-0.72
2019-01-04T19:01:29.464Z,-0.69
2019-01-04T19:04:00.253Z,-0.67
2019-01-04T19:06:31.320Z,-0.67
2019-01-04T19:09:02.131Z,-0.65
2019-01-04T19:11:33.232Z,-0.53
2019-01-04T19:14:04.017Z,-0.69
2019-01-04T19:16:34.799Z,-0.65
2019-01-04T19:19:06.459Z,-0.61
2019-01-04T19:21:37.219Z,-0.63
2019-01-04T19:24:08.004Z,-0.65
2019-01-04T19:26:38.859Z,-0.63
2019-01-04T19:29:09.732Z,-0.72
2019-01-04T19:31:40.524Z,-0.60
2019-01-04T19:34:11.302Z,-0.58
2019-01-04T19:36:42.110Z,-0.60
2019-01-04T19:39:12.880Z,-0.38
2019-01-04T19:41:43.681Z,-0.30
2019-01-04T19:44:15.263Z,-0.41
2019-01-04T19:46:46.045Z,-0.50
2019-01-04T19:49:16.846Z,-0.50
2019-01-04T19:51:47.624Z,-0.44
2019-01-04T19:54:18.406Z,-0.62
2019-01-04T19:56:49.184Z,-0.70
2019-01-04T19:59:19.986Z,-0.55
2019-01-04T20:01:50.793Z,-0.68
2019-01-04T20:04:21.549Z,-0.74
2019-01-04T20:07:54.387Z,-0.69
2019-01-04T20:11:19.316Z,-0.67
2019-01-04T20:14:48.814Z,-0.61
2019-01-04T20:17:56.060Z,-0.43
2019-01-04T20:20:46.362Z,-0.30
2019-01-04T20:23:48.620Z,-0.38
2019-01-04T20:26:37.132Z,-0.39
2019-01-04T20:29:26.938Z,-0.46
2019-01-04T20:32:16.556Z,-0.36
2019-01-04T20:35:21.679Z,-0.60
2019-01-04T20:38:10.533Z,-0.54
2019-01-04T20:40:59.233Z,-0.53
2019-01-04T20:44:01.445Z,-0.63
2019-01-04T20:46:54.354Z,-0.61
2019-01-04T20:49:43.069Z,-0.51
2019-01-04T20:52:23.353Z,-0.56
2019-01-04T20:55:25.249Z,-0.82
2019-01-04T20:58:26.460Z,-0.73
2019-01-04T21:01:18.678Z,-0.74
2019-01-04T21:04:07.493Z,-0.55
2019-01-04T21:06:53.130Z,-0.62
2019-01-04T21:09:51.864Z,-0.68
2019-01-04T21:12:39.537Z,-0.72
2019-01-04T21:15:28.043Z,-0.66
2019-01-04T21:18:33.692Z,-0.57
2019-01-04T21:21:29.725Z,-0.57
2019-01-04T21:24:18.174Z,-0.75
2019-01-04T21:27:14.054Z,-0.67
2019-01-04T21:30:07.826Z,-0.73
2019-01-04T21:33:12.928Z,-0.78
2019-01-04T21:36:08.808Z,-0.66
2019-01-04T21:38:58.962Z,-0.64
2019-01-04T21:41:46.823Z,-0.78
2019-01-04T21:44:43.078Z,-0.77
2019-01-04T21:47:33.028Z,-0.89
2019-01-04T21:50:28.898Z,-0.87
2019-01-04T21:53:16.784Z,-0.91
2019-01-04T21:56:05.587Z,-0.83
2019-01-04T21:59:04.749Z,-0.85
2019-01-04T22:02:03.458Z,-0.90
2019-01-04T22:04:52.092Z,-1.02
2019-01-04T22:07:42.490Z,-0.90
2019-01-04T22:10:31.190Z,-0.96
2019-01-04T22:13:24.089Z,-0.90
2019-01-04T22:16:18.485Z,-0.78
2019-01-04T22:19:09.800Z,-0.78
2019-01-04T22:22:18.023Z,-0.76
2019-01-04T22:25:10.782Z,-1.05
2019-01-04T22:27:59.208Z,-0.91
2019-01-04T22:30:44.177Z,-0.95
2019-01-04T22:33:43.017Z,-0.84
2019-01-04T22:36:38.611Z,-0.85
2019-01-04T22:39:25.802Z,-0.85
2019-01-04T22:42:14.586Z,-0.97
2019-01-04T22:45:10.201Z,-0.97
2019-01-04T22:47:58.607Z,-0.87
2019-01-04T22:51:00.294Z,-0.90
2019-01-04T22:53:59.452Z,-0.84
2019-01-04T22:56:41.281Z,-0.83
2019-01-04T22:59:29.749Z,-0.77
2019-01-04T23:02:34.601Z,-0.76
2019-01-04T23:05:23.138Z,-0.82
2019-01-04T23:08:13.813Z,-0.83
2019-01-04T23:11:02.482Z,-0.83
2019-01-04T23:13:55.844Z,-0.82
2019-01-04T23:17:01.872Z,-0.84
2019-01-04T23:19:44.182Z,-0.73
2019-01-04T23:22:54.282Z,-0.70
2019-01-04T23:25:56.362Z,-0.71
2019-01-04T23:28:48.986Z,-0.66
2019-01-04T23:31:46.323Z,-0.77
2019-01-04T23:34:35.701Z,-0.71
2019-01-04T23:37:40.730Z,-0.72
2019-01-04T23:40:23.566Z,-0.74
2019-01-04T23:43:16.366Z,-0.72
2019-01-04T23:46:04.977Z,-0.69
2019-01-04T23:49:06.795Z,-0.58
2019-01-04T23:51:56.579Z,-0.62
2019-01-04T23:54:54.151Z,-0.41
2019-01-04T23:57:43.955Z,-0.32
